sensor_id;sensor_type;location;lat;lon;timestamp;pressure;altitude;pressure_sealevel;temperature;humidity
52249;BME280;38541;48.130;8.378;2023-01-30T00:01:05;93255.72;;;-7.74;69.11
52249;BME280;38541;48.130;8.378;2023-01-30T00:03:31;93245.78;;;-7.77;68.88
52249;BME280;38541;48.130;8.378;2023-01-30T00:05:59;93241.63;;;-7.78;68.90
52249;BME280;38541;48.130;8.378;2023-01-30T00:08:25;93228.22;;;-7.80;69.35
52249;BME280;38541;48.130;8.378;2023-01-30T00:10:52;93228.63;;;-7.84;69.91
52249;BME280;38541;48.130;8.378;2023-01-30T00:13:18;93222.19;;;-7.79;70.58
52249;BME280;38541;48.130;8.378;2023-01-30T00:15:46;93212.56;;;-7.95;68.77
52249;BME280;38541;48.130;8.378;2023-01-30T00:18:13;93206.66;;;-8.05;68.60
52249;BME280;38541;48.130;8.378;2023-01-30T00:20:39;93195.00;;;-8.08;68.84
52249;BME280;38541;48.130;8.378;2023-01-30T00:23:06;93199.97;;;-8.06;69.02
52249;BME280;38541;48.130;8.378;2023-01-30T00:25:32;93203.84;;;-8.12;68.84
52249;BME280;38541;48.130;8.378;2023-01-30T00:28:00;93200.25;;;-8.19;68.64
52249;BME280;38541;48.130;8.378;2023-01-30T00:30:28;93199.16;;;-8.17;68.97
52249;BME280;38541;48.130;8.378;2023-01-30T00:32:57;93202.13;;;-8.11;69.08
52249;BME280;38541;48.130;8.378;2023-01-30T00:35:24;93208.16;;;-8.12;69.16
52249;BME280;38541;48.130;8.378;2023-01-30T00:37:55;93194.59;;;-8.13;69.41
52249;BME280;38541;48.130;8.378;2023-01-30T00:40:24;93191.94;;;-8.11;69.48
52249;BME280;38541;48.130;8.378;2023-01-30T00:42:52;93190.84;;;-8.09;70.04
52249;BME280;38541;48.130;8.378;2023-01-30T00:45:43;93182.53;;;-8.11;69.75
52249;BME280;38541;48.130;8.378;2023-01-30T00:48:29;93171.38;;;-8.10;70.10
52249;BME280;38541;48.130;8.378;2023-01-30T00:50:56;93172.88;;;-8.07;70.56
52249;BME280;38541;48.130;8.378;2023-01-30T00:53:22;93164.41;;;-8.08;70.15
52249;BME280;38541;48.130;8.378;2023-01-30T00:55:50;93154.75;;;-8.14;69.38
52249;BME280;38541;48.130;8.378;2023-01-30T00:58:17;93159.75;;;-8.22;68.89
52249;BME280;38541;48.130;8.378;2023-01-30T01:00:45;93152.25;;;-8.34;68.50
52249;BME280;38541;48.130;8.378;2023-01-30T01:03:11;93151.31;;;-8.33;68.87
52249;BME280;38541;48.130;8.378;2023-01-30T01:05:39;93149.03;;;-8.36;68.37
52249;BME280;38541;48.130;8.378;2023-01-30T01:08:05;93152.66;;;-8.48;68.22
52249;BME280;38541;48.130;8.378;2023-01-30T01:10:32;93148.28;;;-8.56;68.86
52249;BME280;38541;48.130;8.378;2023-01-30T01:12:59;93143.72;;;-8.52;69.78
52249;BME280;38541;48.130;8.378;2023-01-30T01:15:26;93136.16;;;-8.44;69.71
52249;BME280;38541;48.130;8.378;2023-01-30T01:17:53;93135.09;;;-8.41;69.80
52249;BME280;38541;48.130;8.378;2023-01-30T01:20:20;93150.94;;;-8.38;70.38
52249;BME280;38541;48.130;8.378;2023-01-30T01:22:51;93151.59;;;-8.36;70.29
52249;BME280;38541;48.130;8.378;2023-01-30T01:25:19;93149.31;;;-8.39;70.25
52249;BME280;38541;48.130;8.378;2023-01-30T01:27:46;93163.53;;;-8.46;69.43
52249;BME280;38541;48.130;8.378;2023-01-30T01:30:15;93157.66;;;-8.47;69.31
52249;BME280;38541;48.130;8.378;2023-01-30T01:32:42;93166.22;;;-8.48;69.83
52249;BME280;38541;48.130;8.378;2023-01-30T01:35:09;93169.16;;;-8.42;69.88
52249;BME280;38541;48.130;8.378;2023-01-30T01:37:36;93169.72;;;-8.39;70.10
52249;BME280;38541;48.130;8.378;2023-01-30T01:40:04;93170.94;;;-8.43;70.13
52249;BME280;38541;48.130;8.378;2023-01-30T01:42:49;93180.69;;;-8.48;70.43
52249;BME280;38541;48.130;8.378;2023-01-30T01:45:21;93184.38;;;-8.51;70.77
52249;BME280;38541;48.130;8.378;2023-01-30T01:47:59;93189.00;;;-8.46;71.31
52249;BME280;38541;48.130;8.378;2023-01-30T01:50:37;93198.53;;;-8.48;70.41
52249;BME280;38541;48.130;8.378;2023-01-30T01:53:07;93220.16;;;-8.52;70.57
52249;BME280;38541;48.130;8.378;2023-01-30T01:55:37;93217.69;;;-8.44;71.40
52249;BME280;38541;48.130;8.378;2023-01-30T01:58:34;93220.13;;;-8.42;71.12
52249;BME280;38541;48.130;8.378;2023-01-30T02:01:02;93224.44;;;-8.43;70.71
52249;BME280;38541;48.130;8.378;2023-01-30T02:03:32;93234.19;;;-8.48;71.13
52249;BME280;38541;48.130;8.378;2023-01-30T02:06:01;93231.00;;;-8.50;71.33
52249;BME280;38541;48.130;8.378;2023-01-30T02:08:33;93245.91;;;-8.55;71.20
52249;BME280;38541;48.130;8.378;2023-01-30T02:11:09;93237.59;;;-8.57;71.97
52249;BME280;38541;48.130;8.378;2023-01-30T02:13:37;93231.94;;;-8.51;73.20
52249;BME280;38541;48.130;8.378;2023-01-30T02:16:06;93232.59;;;-8.49;73.83
52249;BME280;38541;48.130;8.378;2023-01-30T02:18:34;93237.41;;;-8.36;74.55
52249;BME280;38541;48.130;8.378;2023-01-30T02:23:53;93217.16;;;-8.18;74.24
52249;BME280;38541;48.130;8.378;2023-01-30T02:26:47;93219.41;;;-7.95;75.60
52249;BME280;38541;48.130;8.378;2023-01-30T02:29:38;93198.78;;;-7.64;77.47
52249;BME280;38541;48.130;8.378;2023-01-30T02:41:51;93208.31;;;-6.82;79.94
52249;BME280;38541;48.130;8.378;2023-01-30T02:46:57;93195.69;;;-6.48;80.53
52249;BME280;38541;48.130;8.378;2023-01-30T02:49:31;93175.53;;;-6.33;80.43
52249;BME280;38541;48.130;8.378;2023-01-30T02:52:00;93179.75;;;-6.23;79.93
52249;BME280;38541;48.130;8.378;2023-01-30T02:54:27;93181.69;;;-6.17;79.34
52249;BME280;38541;48.130;8.378;2023-01-30T02:56:57;93187.41;;;-6.23;78.02
52249;BME280;38541;48.130;8.378;2023-01-30T02:59:39;93180.25;;;-6.20;77.95
52249;BME280;38541;48.130;8.378;2023-01-30T03:02:35;93195.44;;;-6.18;76.64
52249;BME280;38541;48.130;8.378;2023-01-30T03:13:10;93194.63;;;-5.39;79.72
52249;BME280;38541;48.130;8.378;2023-01-30T03:15:56;93178.81;;;-5.26;78.77
52249;BME280;38541;48.130;8.378;2023-01-30T03:18:25;93174.53;;;-5.18;78.23
52249;BME280;38541;48.130;8.378;2023-01-30T03:20:51;93177.75;;;-5.16;78.14
52249;BME280;38541;48.130;8.378;2023-01-30T03:23:18;93182.88;;;-5.07;78.30
52249;BME280;38541;48.130;8.378;2023-01-30T03:25:45;93179.72;;;-5.01;77.62
52249;BME280;38541;48.130;8.378;2023-01-30T03:28:17;93186.78;;;-4.95;77.91
52249;BME280;38541;48.130;8.378;2023-01-30T03:30:45;93194.13;;;-4.92;77.59
52249;BME280;38541;48.130;8.378;2023-01-30T03:33:12;93181.81;;;-4.88;77.14
52249;BME280;38541;48.130;8.378;2023-01-30T03:35:45;93182.44;;;-4.94;76.99
52249;BME280;38541;48.130;8.378;2023-01-30T03:38:12;93178.13;;;-5.02;78.20
52249;BME280;38541;48.130;8.378;2023-01-30T03:40:39;93167.19;;;-5.04;77.97
52249;BME280;38541;48.130;8.378;2023-01-30T03:43:07;93172.31;;;-5.04;78.06
52249;BME280;38541;48.130;8.378;2023-01-30T03:45:35;93165.00;;;-4.99;77.83
52249;BME280;38541;48.130;8.378;2023-01-30T03:48:02;93173.31;;;-4.97;77.78
52249;BME280;38541;48.130;8.378;2023-01-30T03:50:29;93178.13;;;-4.94;78.55
52249;BME280;38541;48.130;8.378;2023-01-30T03:52:56;93165.16;;;-4.92;78.11
52249;BME280;38541;48.130;8.378;2023-01-30T03:55:22;93165.16;;;-4.92;77.64
52249;BME280;38541;48.130;8.378;2023-01-30T03:57:54;93159.88;;;-4.99;77.19
52249;BME280;38541;48.130;8.378;2023-01-30T04:00:20;93152.13;;;-5.07;77.62
52249;BME280;38541;48.130;8.378;2023-01-30T04:02:49;93144.63;;;-5.09;77.72
52249;BME280;38541;48.130;8.378;2023-01-30T04:05:17;93130.22;;;-5.10;77.85
52249;BME280;38541;48.130;8.378;2023-01-30T04:07:50;93133.75;;;-5.03;77.96
52249;BME280;38541;48.130;8.378;2023-01-30T04:10:17;93126.56;;;-4.99;77.65
52249;BME280;38541;48.130;8.378;2023-01-30T04:12:46;93137.91;;;-4.93;77.32
52249;BME280;38541;48.130;8.378;2023-01-30T04:15:12;93127.38;;;-4.90;77.28
52249;BME280;38541;48.130;8.378;2023-01-30T04:17:49;93119.50;;;-4.97;76.55
52249;BME280;38541;48.130;8.378;2023-01-30T04:20:21;93129.44;;;-5.02;76.61
52249;BME280;38541;48.130;8.378;2023-01-30T04:22:53;93134.38;;;-5.09;75.99
52249;BME280;38541;48.130;8.378;2023-01-30T04:25:21;93124.91;;;-5.17;75.93
52249;BME280;38541;48.130;8.378;2023-01-30T04:27:47;93130.31;;;-5.28;76.24
52249;BME280;38541;48.130;8.378;2023-01-30T04:30:17;93140.28;;;-5.17;77.41
52249;BME280;38541;48.130;8.378;2023-01-30T04:32:46;93146.06;;;-5.06;77.16
52249;BME280;38541;48.130;8.378;2023-01-30T04:35:13;93147.06;;;-4.99;77.22
52249;BME280;38541;48.130;8.378;2023-01-30T04:37:40;93152.31;;;-5.01;76.14
52249;BME280;38541;48.130;8.378;2023-01-30T04:40:08;93157.78;;;-4.95;76.84
52249;BME280;38541;48.130;8.378;2023-01-30T04:42:35;93166.28;;;-4.87;76.47
52249;BME280;38541;48.130;8.378;2023-01-30T04:45:20;93169.47;;;-4.84;76.29
52249;BME280;38541;48.130;8.378;2023-01-30T04:47:49;93173.31;;;-4.89;75.76
52249;BME280;38541;48.130;8.378;2023-01-30T04:50:15;93169.81;;;-4.88;75.59
52249;BME280;38541;48.130;8.378;2023-01-30T04:52:42;93186.44;;;-4.92;76.42
52249;BME280;38541;48.130;8.378;2023-01-30T04:55:10;93178.13;;;-4.94;76.55
52249;BME280;38541;48.130;8.378;2023-01-30T04:57:36;93183.38;;;-4.95;77.08
52249;BME280;38541;48.130;8.378;2023-01-30T05:00:03;93182.16;;;-4.91;77.28
52249;BME280;38541;48.130;8.378;2023-01-30T05:02:32;93173.97;;;-4.87;77.28
52249;BME280;38541;48.130;8.378;2023-01-30T05:04:59;93177.84;;;-4.82;77.21
52249;BME280;38541;48.130;8.378;2023-01-30T05:07:25;93166.31;;;-4.78;77.87
52249;BME280;38541;48.130;8.378;2023-01-30T05:09:51;93165.34;;;-4.69;77.75
52249;BME280;38541;48.130;8.378;2023-01-30T05:12:18;93144.84;;;-4.69;77.78
52249;BME280;38541;48.130;8.378;2023-01-30T05:14:44;93132.38;;;-4.64;77.62
52249;BME280;38541;48.130;8.378;2023-01-30T05:17:12;93127.25;;;-4.55;77.43
52249;BME280;38541;48.130;8.378;2023-01-30T05:19:38;93132.34;;;-4.47;77.16
52249;BME280;38541;48.130;8.378;2023-01-30T05:22:05;93132.69;;;-4.50;76.62
52249;BME280;38541;48.130;8.378;2023-01-30T05:24:32;93139.25;;;-4.48;76.82
52249;BME280;38541;48.130;8.378;2023-01-30T05:26:58;93146.13;;;-4.48;76.02
52249;BME280;38541;48.130;8.378;2023-01-30T05:29:24;93163.31;;;-4.49;75.19
52249;BME280;38541;48.130;8.378;2023-01-30T05:31:51;93156.06;;;-4.53;75.31
52249;BME280;38541;48.130;8.378;2023-01-30T05:34:17;93160.88;;;-4.59;75.26
52249;BME280;38541;48.130;8.378;2023-01-30T05:36:44;93149.81;;;-4.59;75.54
52249;BME280;38541;48.130;8.378;2023-01-30T05:39:11;93150.31;;;-4.55;75.33
52249;BME280;38541;48.130;8.378;2023-01-30T05:41:37;93164.72;;;-4.54;75.29
52249;BME280;38541;48.130;8.378;2023-01-30T05:44:04;93164.09;;;-4.56;75.85
52249;BME280;38541;48.130;8.378;2023-01-30T05:46:30;93173.06;;;-4.52;76.40
52249;BME280;38541;48.130;8.378;2023-01-30T05:48:57;93153.81;;;-4.48;77.20
52249;BME280;38541;48.130;8.378;2023-01-30T05:51:25;93150.97;;;-4.45;77.35
52249;BME280;38541;48.130;8.378;2023-01-30T05:53:52;93149.50;;;-4.39;76.84
52249;BME280;38541;48.130;8.378;2023-01-30T05:56:19;93133.16;;;-4.30;77.35
52249;BME280;38541;48.130;8.378;2023-01-30T05:58:52;93130.59;;;-4.22;76.70
52249;BME280;38541;48.130;8.378;2023-01-30T06:01:20;93136.53;;;-4.21;76.12
52249;BME280;38541;48.130;8.378;2023-01-30T06:03:48;93136.03;;;-4.25;75.71
52249;BME280;38541;48.130;8.378;2023-01-30T06:06:14;93144.03;;;-4.20;76.22
52249;BME280;38541;48.130;8.378;2023-01-30T06:08:41;93138.44;;;-4.15;75.87
52249;BME280;38541;48.130;8.378;2023-01-30T06:11:13;93135.88;;;-4.15;75.58
52249;BME280;38541;48.130;8.378;2023-01-30T06:13:40;93156.41;;;-4.15;76.05
52249;BME280;38541;48.130;8.378;2023-01-30T06:16:08;93156.72;;;-4.18;75.21
52249;BME280;38541;48.130;8.378;2023-01-30T06:18:37;93161.03;;;-4.19;75.24
52249;BME280;38541;48.130;8.378;2023-01-30T06:21:04;93155.13;;;-4.19;75.34
52249;BME280;38541;48.130;8.378;2023-01-30T06:23:31;93150.00;;;-4.19;75.44
52249;BME280;38541;48.130;8.378;2023-01-30T06:25:57;93144.88;;;-4.19;75.30
52249;BME280;38541;48.130;8.378;2023-01-30T06:28:24;93141.00;;;-4.15;75.74
52249;BME280;38541;48.130;8.378;2023-01-30T06:30:51;93142.28;;;-4.11;75.70
52249;BME280;38541;48.130;8.378;2023-01-30T06:33:18;93140.53;;;-4.10;75.69
52249;BME280;38541;48.130;8.378;2023-01-30T06:35:48;93132.16;;;-4.04;75.34
52249;BME280;38541;48.130;8.378;2023-01-30T06:38:14;93136.16;;;-3.93;75.43
52249;BME280;38541;48.130;8.378;2023-01-30T06:40:44;93144.00;;;-3.87;74.89
52249;BME280;38541;48.130;8.378;2023-01-30T06:43:10;93145.13;;;-3.81;75.10
52249;BME280;38541;48.130;8.378;2023-01-30T06:45:37;93136.44;;;-3.72;75.58
52249;BME280;38541;48.130;8.378;2023-01-30T06:48:04;93137.06;;;-3.61;75.33
52249;BME280;38541;48.130;8.378;2023-01-30T06:50:31;93133.19;;;-3.57;75.14
52249;BME280;38541;48.130;8.378;2023-01-30T06:53:01;93131.88;;;-3.53;74.98
52249;BME280;38541;48.130;8.378;2023-01-30T06:55:28;93139.28;;;-3.50;75.15
52249;BME280;38541;48.130;8.378;2023-01-30T06:58:05;93137.16;;;-3.46;75.03
52249;BME280;38541;48.130;8.378;2023-01-30T07:00:33;93139.56;;;-3.45;74.82
52249;BME280;38541;48.130;8.378;2023-01-30T07:02:59;93133.81;;;-3.47;75.02
52249;BME280;38541;48.130;8.378;2023-01-30T07:05:26;93132.16;;;-3.39;75.11
52249;BME280;38541;48.130;8.378;2023-01-30T07:07:54;93124.59;;;-3.33;75.17
52249;BME280;38541;48.130;8.378;2023-01-30T07:10:20;93122.03;;;-3.33;75.22
52249;BME280;38541;48.130;8.378;2023-01-30T07:12:47;93108.84;;;-3.30;75.04
52249;BME280;38541;48.130;8.378;2023-01-30T07:15:14;93109.97;;;-3.32;75.08
52249;BME280;38541;48.130;8.378;2023-01-30T07:17:40;93115.75;;;-3.30;75.01
52249;BME280;38541;48.130;8.378;2023-01-30T07:20:08;93104.34;;;-3.27;75.07
52249;BME280;38541;48.130;8.378;2023-01-30T07:22:35;93098.53;;;-3.21;74.93
52249;BME280;38541;48.130;8.378;2023-01-30T07:25:01;93086.00;;;-3.24;74.66
52249;BME280;38541;48.130;8.378;2023-01-30T07:27:28;93098.06;;;-3.25;74.41
52249;BME280;38541;48.130;8.378;2023-01-30T07:29:54;93097.25;;;-3.25;74.86
52249;BME280;38541;48.130;8.378;2023-01-30T07:32:21;93090.03;;;-3.22;75.00
52249;BME280;38541;48.130;8.378;2023-01-30T07:34:47;93097.03;;;-3.16;74.79
52249;BME280;38541;48.130;8.378;2023-01-30T07:37:14;93106.13;;;-3.05;74.39
52249;BME280;38541;48.130;8.378;2023-01-30T07:39:41;93128.44;;;-2.97;74.55
52249;BME280;38541;48.130;8.378;2023-01-30T07:42:07;93123.25;;;-2.89;73.99
52249;BME280;38541;48.130;8.378;2023-01-30T07:44:34;93129.03;;;-2.87;74.02
52249;BME280;38541;48.130;8.378;2023-01-30T07:47:00;93132.69;;;-2.81;74.32
52249;BME280;38541;48.130;8.378;2023-01-30T07:49:27;93131.00;;;-2.65;74.36
52249;BME280;38541;48.130;8.378;2023-01-30T07:51:53;93147.44;;;-2.51;73.94
52249;BME280;38541;48.130;8.378;2023-01-30T07:54:20;93141.59;;;-2.45;73.73
52249;BME280;38541;48.130;8.378;2023-01-30T07:56:46;93137.56;;;-2.39;73.67
52249;BME280;38541;48.130;8.378;2023-01-30T07:59:13;93140.34;;;-2.26;73.81
52249;BME280;38541;48.130;8.378;2023-01-30T08:01:40;93134.97;;;-2.16;73.85
52249;BME280;38541;48.130;8.378;2023-01-30T08:04:06;93137.19;;;-2.13;73.53
52249;BME280;38541;48.130;8.378;2023-01-30T08:06:32;93141.34;;;-2.12;73.57
52249;BME280;38541;48.130;8.378;2023-01-30T08:09:05;93146.38;;;-1.95;73.54
52249;BME280;38541;48.130;8.378;2023-01-30T08:11:32;93138.56;;;-1.87;73.37
52249;BME280;38541;48.130;8.378;2023-01-30T08:13:59;93123.19;;;-1.80;73.38
52249;BME280;38541;48.130;8.378;2023-01-30T08:16:25;93134.84;;;-1.69;73.62
52249;BME280;38541;48.130;8.378;2023-01-30T08:18:52;93137.78;;;-1.58;73.79
52249;BME280;38541;48.130;8.378;2023-01-30T08:21:19;93131.22;;;-1.45;73.70
52249;BME280;38541;48.130;8.378;2023-01-30T08:23:45;93129.16;;;-1.50;73.38
52249;BME280;38541;48.130;8.378;2023-01-30T08:26:12;93124.88;;;-1.42;74.28
52249;BME280;38541;48.130;8.378;2023-01-30T08:28:38;93127.09;;;-1.24;73.91
52249;BME280;38541;48.130;8.378;2023-01-30T08:31:10;93126.09;;;-1.08;73.78
52249;BME280;38541;48.130;8.378;2023-01-30T08:33:37;93121.31;;;-1.11;73.69
52249;BME280;38541;48.130;8.378;2023-01-30T08:36:04;93119.19;;;-1.23;74.29
52249;BME280;38541;48.130;8.378;2023-01-30T08:38:30;93122.91;;;-1.10;74.16
52249;BME280;38541;48.130;8.378;2023-01-30T08:40:57;93144.00;;;-1.22;73.99
52249;BME280;38541;48.130;8.378;2023-01-30T08:43:24;93142.13;;;-1.28;74.60
52249;BME280;38541;48.130;8.378;2023-01-30T08:45:55;93164.63;;;-1.22;74.52
52249;BME280;38541;48.130;8.378;2023-01-30T08:48:22;93148.72;;;-1.25;74.70
52249;BME280;38541;48.130;8.378;2023-01-30T08:50:55;93154.13;;;-1.20;75.13
52249;BME280;38541;48.130;8.378;2023-01-30T08:53:22;93147.16;;;-1.05;74.67
52249;BME280;38541;48.130;8.378;2023-01-30T08:55:50;93138.09;;;-1.01;74.54
52249;BME280;38541;48.130;8.378;2023-01-30T08:58:17;93155.75;;;-0.82;74.83
52249;BME280;38541;48.130;8.378;2023-01-30T09:00:44;93148.53;;;-0.50;74.33
52249;BME280;38541;48.130;8.378;2023-01-30T09:03:14;93160.03;;;-0.53;74.15
52249;BME280;38541;48.130;8.378;2023-01-30T09:05:41;93158.06;;;-0.51;74.12
52249;BME280;38541;48.130;8.378;2023-01-30T09:08:08;93164.38;;;-0.53;74.71
52249;BME280;38541;48.130;8.378;2023-01-30T09:10:35;93181.09;;;-0.49;74.68
52249;BME280;38541;48.130;8.378;2023-01-30T09:13:02;93167.28;;;-0.41;74.57
52249;BME280;38541;48.130;8.378;2023-01-30T09:15:32;93166.13;;;-0.39;74.50
52249;BME280;38541;48.130;8.378;2023-01-30T09:17:59;93143.13;;;-0.34;74.68
52249;BME280;38541;48.130;8.378;2023-01-30T09:20:25;93154.88;;;-0.09;74.29
52249;BME280;38541;48.130;8.378;2023-01-30T09:22:52;93153.78;;;0.07;74.38
52249;BME280;38541;48.130;8.378;2023-01-30T09:25:19;93152.47;;;0.11;74.26
52249;BME280;38541;48.130;8.378;2023-01-30T09:27:49;93152.09;;;0.14;74.18
52249;BME280;38541;48.130;8.378;2023-01-30T09:30:16;93151.81;;;0.09;74.73
52249;BME280;38541;48.130;8.378;2023-01-30T09:32:43;93154.28;;;0.17;75.39
52249;BME280;38541;48.130;8.378;2023-01-30T09:35:10;93156.09;;;0.23;74.79
52249;BME280;38541;48.130;8.378;2023-01-30T09:37:37;93150.66;;;0.40;74.81
52249;BME280;38541;48.130;8.378;2023-01-30T09:40:04;93141.00;;;0.55;75.18
52249;BME280;38541;48.130;8.378;2023-01-30T09:45:40;93148.75;;;0.91;73.22
52249;BME280;38541;48.130;8.378;2023-01-30T09:48:14;93161.47;;;0.85;71.90
52249;BME280;38541;48.130;8.378;2023-01-30T09:51:04;93140.88;;;1.12;72.35
52249;BME280;38541;48.130;8.378;2023-01-30T09:53:44;93153.97;;;1.04;71.90
52249;BME280;38541;48.130;8.378;2023-01-30T09:56:15;93140.84;;;1.06;72.30
52249;BME280;38541;48.130;8.378;2023-01-30T09:58:47;93146.44;;;1.09;72.02
52249;BME280;38541;48.130;8.378;2023-01-30T10:01:26;93149.69;;;1.25;72.41
52249;BME280;38541;48.130;8.378;2023-01-30T10:04:45;93149.09;;;1.30;71.98
52249;BME280;38541;48.130;8.378;2023-01-30T10:18:57;93169.97;;;2.58;67.97
52249;BME280;38541;48.130;8.378;2023-01-30T10:21:55;93174.16;;;2.59;67.35
52249;BME280;38541;48.130;8.378;2023-01-30T10:27:16;93140.03;;;2.62;67.16
52249;BME280;38541;48.130;8.378;2023-01-30T10:29:47;93137.25;;;2.56;66.98
52249;BME280;38541;48.130;8.378;2023-01-30T10:35:04;93119.00;;;2.83;67.39
52249;BME280;38541;48.130;8.378;2023-01-30T10:37:39;93142.47;;;3.16;66.82
52249;BME280;38541;48.130;8.378;2023-01-30T10:40:28;93124.03;;;2.78;67.81
52249;BME280;38541;48.130;8.378;2023-01-30T10:48:39;93111.16;;;2.31;68.19
52249;BME280;38541;48.130;8.378;2023-01-30T10:53:56;93113.91;;;2.50;68.38
52249;BME280;38541;48.130;8.378;2023-01-30T10:59:27;93097.78;;;2.41;68.43
52249;BME280;38541;48.130;8.378;2023-01-30T11:02:23;93091.41;;;2.30;68.68
52249;BME280;38541;48.130;8.378;2023-01-30T11:04:57;93076.00;;;2.49;69.62
52249;BME280;38541;48.130;8.378;2023-01-30T11:07:27;93074.94;;;2.70;69.56
52249;BME280;38541;48.130;8.378;2023-01-30T11:09:56;93071.16;;;2.66;69.22
52249;BME280;38541;48.130;8.378;2023-01-30T11:12:23;93072.88;;;2.85;68.61
52249;BME280;38541;48.130;8.378;2023-01-30T11:14:51;93075.06;;;2.89;69.03
52249;BME280;38541;48.130;8.378;2023-01-30T11:17:20;93067.28;;;2.89;68.39
52249;BME280;38541;48.130;8.378;2023-01-30T11:19:54;93075.03;;;3.02;67.91
52249;BME280;38541;48.130;8.378;2023-01-30T11:22:23;93068.13;;;2.82;68.28
52249;BME280;38541;48.130;8.378;2023-01-30T11:25:04;93060.66;;;2.93;68.17
52249;BME280;38541;48.130;8.378;2023-01-30T11:27:34;93049.06;;;2.56;68.46
52249;BME280;38541;48.130;8.378;2023-01-30T11:30:18;93048.44;;;2.61;68.74
52249;BME280;38541;48.130;8.378;2023-01-30T11:32:48;93051.88;;;2.41;69.03
52249;BME280;38541;48.130;8.378;2023-01-30T11:37:43;93049.00;;;2.70;68.80
52249;BME280;38541;48.130;8.378;2023-01-30T11:42:45;93047.50;;;2.42;68.61
52249;BME280;38541;48.130;8.378;2023-01-30T11:45:12;93045.50;;;2.44;68.83
52249;BME280;38541;48.130;8.378;2023-01-30T11:47:52;93046.25;;;2.58;68.85
52249;BME280;38541;48.130;8.378;2023-01-30T11:50:31;93031.28;;;2.53;68.11
52249;BME280;38541;48.130;8.378;2023-01-30T11:55:57;93024.78;;;2.83;68.60
52249;BME280;38541;48.130;8.378;2023-01-30T11:58:34;93025.53;;;2.97;68.03
52249;BME280;38541;48.130;8.378;2023-01-30T12:01:02;93029.16;;;2.96;66.66
52249;BME280;38541;48.130;8.378;2023-01-30T12:03:29;93031.75;;;2.96;67.30
52249;BME280;38541;48.130;8.378;2023-01-30T12:05:57;93034.97;;;3.23;65.94
52249;BME280;38541;48.130;8.378;2023-01-30T12:08:28;93038.31;;;2.92;66.30
52249;BME280;38541;48.130;8.378;2023-01-30T12:11:43;93033.56;;;2.89;66.83
52249;BME280;38541;48.130;8.378;2023-01-30T12:14:39;93040.41;;;3.15;65.96
52249;BME280;38541;48.130;8.378;2023-01-30T12:17:19;93044.31;;;2.92;65.70
52249;BME280;38541;48.130;8.378;2023-01-30T12:20:06;93035.22;;;2.76;66.21
52249;BME280;38541;48.130;8.378;2023-01-30T12:22:46;93031.50;;;2.97;66.89
52249;BME280;38541;48.130;8.378;2023-01-30T12:25:22;93044.59;;;2.77;66.20
52249;BME280;38541;48.130;8.378;2023-01-30T12:28:01;93044.19;;;2.80;66.38
52249;BME280;38541;48.130;8.378;2023-01-30T12:32:58;93055.03;;;2.57;66.63
52249;BME280;38541;48.130;8.378;2023-01-30T12:38:35;93040.94;;;2.33;67.63
52249;BME280;38541;48.130;8.378;2023-01-30T12:41:45;93052.72;;;2.15;67.84
52249;BME280;38541;48.130;8.378;2023-01-30T12:53:11;93027.59;;;2.29;68.89
52249;BME280;38541;48.130;8.378;2023-01-30T12:56:10;93023.63;;;2.20;69.46
52249;BME280;38541;48.130;8.378;2023-01-30T12:59:02;93023.84;;;2.18;68.88
52249;BME280;38541;48.130;8.378;2023-01-30T13:02:15;93001.47;;;2.17;69.65
52249;BME280;38541;48.130;8.378;2023-01-30T13:11:02;93008.72;;;1.88;71.11
52249;BME280;38541;48.130;8.378;2023-01-30T13:13:53;93016.31;;;1.56;71.29
52249;BME280;38541;48.130;8.378;2023-01-30T13:16:24;93004.38;;;1.55;72.06
52249;BME280;38541;48.130;8.378;2023-01-30T13:19:04;93004.97;;;1.57;71.77
52249;BME280;38541;48.130;8.378;2023-01-30T13:21:36;93003.59;;;1.61;70.98
52249;BME280;38541;48.130;8.378;2023-01-30T13:24:19;92994.41;;;1.72;71.70
52249;BME280;38541;48.130;8.378;2023-01-30T13:26:47;92990.97;;;1.98;70.57
52249;BME280;38541;48.130;8.378;2023-01-30T13:29:22;93000.69;;;2.23;70.77
52249;BME280;38541;48.130;8.378;2023-01-30T13:31:53;93001.88;;;2.27;69.89
52249;BME280;38541;48.130;8.378;2023-01-30T13:34:31;93008.63;;;2.28;70.78
52249;BME280;38541;48.130;8.378;2023-01-30T13:37:01;93015.00;;;2.39;70.80
52249;BME280;38541;48.130;8.378;2023-01-30T13:39:34;93018.97;;;2.42;72.09
52249;BME280;38541;48.130;8.378;2023-01-30T13:42:16;93008.78;;;2.47;72.07
52249;BME280;38541;48.130;8.378;2023-01-30T13:44:47;93002.41;;;2.43;70.92
52249;BME280;38541;48.130;8.378;2023-01-30T13:47:38;93018.63;;;2.25;70.77
52249;BME280;38541;48.130;8.378;2023-01-30T13:53:10;93020.03;;;2.14;71.67
52249;BME280;38541;48.130;8.378;2023-01-30T13:55:46;93027.03;;;2.20;71.79
52249;BME280;38541;48.130;8.378;2023-01-30T13:58:33;93030.63;;;2.19;72.49
52249;BME280;38541;48.130;8.378;2023-01-30T14:01:10;93033.78;;;2.21;72.42
52249;BME280;38541;48.130;8.378;2023-01-30T14:03:39;93033.81;;;2.08;72.98
52249;BME280;38541;48.130;8.378;2023-01-30T14:06:10;93035.22;;;1.77;73.55
52249;BME280;38541;48.130;8.378;2023-01-30T14:14:05;93040.19;;;1.51;75.23
52249;BME280;38541;48.130;8.378;2023-01-30T14:16:47;93035.03;;;1.45;75.84
52249;BME280;38541;48.130;8.378;2023-01-30T14:19:31;93054.09;;;1.17;77.19
52249;BME280;38541;48.130;8.378;2023-01-30T14:22:03;93047.16;;;1.24;78.18
52249;BME280;38541;48.130;8.378;2023-01-30T14:24:30;93058.34;;;1.38;77.82
52249;BME280;38541;48.130;8.378;2023-01-30T14:39:56;93088.06;;;0.87;79.58
52249;BME280;38541;48.130;8.378;2023-01-30T14:42:24;93085.25;;;0.81;79.78
52249;BME280;38541;48.130;8.378;2023-01-30T14:47:25;93094.84;;;1.01;79.62
52249;BME280;38541;48.130;8.378;2023-01-30T14:50:18;93091.84;;;0.91;79.24
52249;BME280;38541;48.130;8.378;2023-01-30T14:52:46;93100.00;;;0.94;79.88
52249;BME280;38541;48.130;8.378;2023-01-30T14:55:18;93105.19;;;0.94;79.58
52249;BME280;38541;48.130;8.378;2023-01-30T14:57:58;93104.16;;;0.82;80.28
52249;BME280;38541;48.130;8.378;2023-01-30T15:00:29;93115.25;;;0.69;80.30
52249;BME280;38541;48.130;8.378;2023-01-30T15:03:03;93121.38;;;0.61;80.74
52249;BME280;38541;48.130;8.378;2023-01-30T15:05:37;93119.63;;;0.75;81.14
52249;BME280;38541;48.130;8.378;2023-01-30T15:08:07;93123.22;;;0.74;81.18
52249;BME280;38541;48.130;8.378;2023-01-30T15:10:57;93131.31;;;0.64;80.68